CA-0285 weather

CLOSED Petrel Airport
Manitoba, Canada

Public forecast

Using degrees Celsius for public forecast. Weather courtesy of forecast.io.

Closest aviation weather report (METAR) to Petrel Airport

Closest report is Brandon Municipal Airport, 23.5 nm (43.5 km) W. Retrieved 2019/10/19 10:00 UTC (44 minutes ago):

CYBR 191000Z 26007KT 15SM SKC 01/00 A2946 RMK SLP991

Closest aviation forecast (TAF) to Petrel Airport

Closest forecast is Brandon Municipal Airport, 23.5 nm (43.5 km) W. Retrieved 2019/10/19 06:45 UTC (4 hours ago):

TAF TAF CYBR 190544Z 1906/1918 28010KT P6SM SKC FM191500 27010KT P6SM SCT080 BKN180 RMK NXT FCST BY 191200Z